DETLM EDAH-ZZZZ
Flight info
| Callsign | DETLM |
|---|---|
| Flight time | N/A |
| Altitude | |
| Route | |
| Aircraft |
Departure
| Time | 2026-04-11 20:50 |
|---|---|
| Airport | Heringsdorf Airport (EDAH) |
Arrival
| Time | N/A |
|---|---|
| Airport | ZZZZ |
| Time | Latitude | Longitude | Altitude | Speed | Heading |
|---|---|---|---|---|---|
| 2026-04-11 20:37 | 53.87737 | 14.14736 | 64 ft | 0 kts | 253° |
| 2026-04-11 20:39 | 53.87736 | 14.14730 | 64 ft | 3 kts | 253° |
| 2026-04-11 20:40 | 53.87736 | 14.14749 | 63 ft | 0 kts | 314° |
| 2026-04-11 20:44 | 53.87746 | 14.14732 | 59 ft | 3 kts | 325° |
| 2026-04-11 20:45 | 53.87777 | 14.14727 | 65 ft | 0 kts | 3° |
| 2026-04-11 20:45 | 53.87786 | 14.14714 | 64 ft | 5 kts | 289° |
| 2026-04-11 20:45 | 53.87795 | 14.14587 | 62 ft | 15 kts | 274° |
| 2026-04-11 20:45 | 53.87806 | 14.14388 | 60 ft | 12 kts | 278° |
| 2026-04-11 20:46 | 53.87834 | 14.14260 | 62 ft | 12 kts | 300° |
| 2026-04-11 20:46 | 53.87877 | 14.14131 | 63 ft | 13 kts | 302° |
| 2026-04-11 20:46 | 53.87918 | 14.14008 | 63 ft | 12 kts | 301° |
| 2026-04-11 20:47 | 53.87991 | 14.13899 | 64 ft | 0 kts | 320° |
| 2026-04-11 20:48 | 53.88022 | 14.13888 | 64 ft | 12 kts | 0° |
| 2026-04-11 20:48 | 53.88074 | 14.13900 | 65 ft | 4 kts | 14° |
| 2026-04-11 20:48 | 53.88086 | 14.13929 | 60 ft | 0 kts | 105° |
| 2026-04-11 20:49 | 53.88065 | 14.14058 | 63 ft | 36 kts | 105° |
| 2026-04-11 20:50 | 53.87958 | 14.14665 | 155 ft | 59 kts | 102° |
| 2026-04-11 20:50 | 53.87775 | 14.15270 | 367 ft | 62 kts | 146° |
| 2026-04-11 20:50 | 53.87321 | 14.15128 | 563 ft | 71 kts | 193° |
| 2026-04-11 20:50 | 53.86874 | 14.14737 | 782 ft | 75 kts | 221° |
| 2026-04-11 20:51 | 53.86833 | 14.13837 | 986 ft | 87 kts | 265° |
| 2026-04-11 20:51 | 53.86886 | 14.12745 | 1092 ft | 102 kts | 261° |
| 2026-04-11 20:51 | 53.86921 | 14.11511 | 1140 ft | 102 kts | 263° |
| 2026-04-11 20:51 | 53.87012 | 14.10299 | 1052 ft | 109 kts | 272° |
| 2026-04-11 20:52 | 53.87146 | 14.09042 | 1031 ft | 107 kts | 271° |
| 2026-04-11 20:52 | 53.87406 | 14.07994 | 1163 ft | 86 kts | 348° |
| 2026-04-11 20:52 | 53.87522 | 14.08557 | 1026 ft | 77 kts | 148° |
| 2026-04-11 20:52 | 53.87109 | 14.08001 | 1195 ft | 107 kts | 258° |
| 2026-04-11 20:53 | 53.87639 | 14.07204 | 1126 ft | 118 kts | 25° |
| 2026-04-11 20:53 | 53.87679 | 14.07833 | 1200 ft | 76 kts | 179° |
| 2026-04-11 20:53 | 53.87585 | 14.06872 | 1213 ft | 119 kts | 311° |
| 2026-04-11 20:53 | 53.88015 | 14.07071 | 1296 ft | 60 kts | 156° |
| 2026-04-11 20:54 | 53.87917 | 14.06372 | 1316 ft | 109 kts | 333° |
| 2026-04-11 20:54 | 53.88128 | 14.06741 | 1200 ft | 67 kts | 163° |
| 2026-04-11 20:54 | 53.87723 | 14.06266 | 1180 ft | 97 kts | 247° |
| 2026-04-11 20:54 | 53.87912 | 14.05063 | 1150 ft | 102 kts | 284° |
| 2026-04-11 20:55 | 53.88448 | 14.04385 | 1080 ft | 104 kts | 353° |
| 2026-04-11 20:55 | 53.89092 | 14.04243 | 975 ft | 87 kts | 9° |
| 2026-04-11 20:55 | 53.89465 | 14.04686 | 875 ft | 62 kts | 91° |
| 2026-04-11 20:55 | 53.89483 | 14.05358 | 921 ft | 53 kts | 104° |
| 2026-04-11 20:56 | 53.89405 | 14.05999 | 941 ft | 68 kts | 112° |
| 2026-04-11 20:56 | 53.89233 | 14.06902 | 933 ft | 92 kts | 113° |
| 2026-04-11 20:56 | 53.89021 | 14.08029 | 851 ft | 108 kts | 106° |
| 2026-04-11 20:56 | 53.88866 | 14.09199 | 673 ft | 93 kts | 106° |
| 2026-04-11 20:57 | 53.88697 | 14.10184 | 516 ft | 83 kts | 109° |
| 2026-04-11 20:57 | 53.88548 | 14.11071 | 421 ft | 74 kts | 103° |
| 2026-04-11 20:57 | 53.88426 | 14.11849 | 298 ft | 65 kts | 105° |
| 2026-04-11 20:57 | 53.88313 | 14.12486 | 207 ft | 52 kts | 99° |
| 2026-04-11 20:58 | 53.88218 | 14.13083 | 149 ft | 52 kts | 101° |
| 2026-04-11 20:58 | 53.88110 | 14.13659 | 268 ft | 56 kts | 105° |
| 2026-04-11 20:58 | 53.88029 | 14.14355 | 459 ft | 62 kts | 72° |
| 2026-04-11 20:58 | 53.88432 | 14.14710 | 640 ft | 76 kts | 20° |
| 2026-04-11 20:59 | 53.88966 | 14.14915 | 851 ft | 84 kts | 16° |
| 2026-04-11 20:59 | 53.89490 | 14.14413 | 988 ft | 102 kts | 292° |
| 2026-04-11 20:59 | 53.89805 | 14.13276 | 1098 ft | 111 kts | 287° |
| 2026-04-11 20:59 | 53.90068 | 14.12195 | 1063 ft | 84 kts | 265° |
| 2026-04-11 21:00 | 53.89829 | 14.11717 | 936 ft | 60 kts | 180° |
| 2026-04-11 21:00 | 53.89408 | 14.11515 | 774 ft | 64 kts | 186° |
| 2026-04-11 21:00 | 53.89004 | 14.11240 | 586 ft | 64 kts | 195° |
| 2026-04-11 21:00 | 53.88598 | 14.11321 | 366 ft | 60 kts | 145° |
| 2026-04-11 21:01 | 53.88386 | 14.11904 | 216 ft | 61 kts | 97° |
| 2026-04-11 21:01 | 53.88300 | 14.12597 | 326 ft | 58 kts | 100° |
| 2026-04-11 21:01 | 53.88074 | 14.13134 | 492 ft | 63 kts | 159° |
| 2026-04-11 21:01 | 53.87603 | 14.13008 | 612 ft | 76 kts | 183° |
| 2026-04-11 21:02 | 53.87128 | 14.12564 | 830 ft | 90 kts | 243° |
| 2026-04-11 21:02 | 53.87039 | 14.11444 | 1054 ft | 101 kts | 255° |
| 2026-04-11 21:02 | 53.86966 | 14.10204 | 1210 ft | 109 kts | 251° |
| 2026-04-11 21:02 | 53.86857 | 14.08883 | 1265 ft | 119 kts | 251° |
| 2026-04-11 21:03 | 53.86997 | 14.07598 | 1379 ft | 112 kts | 309° |
| 2026-04-11 21:03 | 53.87712 | 14.07037 | 1183 ft | 120 kts | 352° |
| 2026-04-11 21:03 | 53.88464 | 14.07167 | 1009 ft | 101 kts | 49° |
| 2026-04-11 21:03 | 53.88784 | 14.08029 | 828 ft | 82 kts | 85° |
| 2026-04-11 21:04 | 53.88827 | 14.08955 | 655 ft | 78 kts | 98° |
| 2026-04-11 21:04 | 53.88739 | 14.09888 | 515 ft | 80 kts | 104° |
| 2026-04-11 21:04 | 53.88605 | 14.10763 | 456 ft | 69 kts | 105° |
| 2026-04-11 21:04 | 53.88480 | 14.11494 | 333 ft | 63 kts | 104° |
| 2026-04-11 21:05 | 53.88365 | 14.12223 | 240 ft | 65 kts | 102° |
| 2026-04-11 21:05 | 53.88245 | 14.12967 | 156 ft | 64 kts | 102° |
| 2026-04-11 21:05 | 53.88127 | 14.13683 | 73 ft | 60 kts | 103° |
| 2026-04-11 21:05 | 53.88034 | 14.14269 | 58 ft | 60 kts | 101° |
| 2026-04-11 21:06 | 53.87909 | 14.14973 | 248 ft | 65 kts | 102° |
| 2026-04-11 21:06 | 53.88061 | 14.15584 | 466 ft | 70 kts | 24° |
| 2026-04-11 21:06 | 53.88584 | 14.15422 | 633 ft | 84 kts | 346° |
| 2026-04-11 21:06 | 53.89170 | 14.15067 | 808 ft | 93 kts | 345° |
| 2026-04-11 21:07 | 53.89804 | 14.14670 | 1005 ft | 101 kts | 345° |
| 2026-04-11 21:07 | 53.90466 | 14.14265 | 1207 ft | 101 kts | 344° |
| 2026-04-11 21:07 | 53.91152 | 14.13878 | 1388 ft | 106 kts | 346° |
| 2026-04-11 21:07 | 53.91848 | 14.13502 | 1612 ft | 104 kts | 348° |
| 2026-04-11 21:08 | 53.92560 | 14.13202 | 1834 ft | 106 kts | 352° |
| 2026-04-11 21:08 | 53.93286 | 14.12908 | 2016 ft | 113 kts | 350° |
| 2026-04-11 21:08 | 53.94079 | 14.12572 | 2139 ft | 124 kts | 350° |
| 2026-04-11 21:08 | 53.94944 | 14.12184 | 2320 ft | 124 kts | 347° |
| 2026-04-11 21:09 | 53.95780 | 14.11780 | 2500 ft | 126 kts | 349° |
| 2026-04-11 21:09 | 53.96649 | 14.11539 | 2650 ft | 126 kts | 3° |
| 2026-04-11 21:09 | 53.97509 | 14.11469 | 2881 ft | 121 kts | 2° |
| 2026-04-11 21:09 | 53.98354 | 14.11378 | 2993 ft | 127 kts | 2° |
| 2026-04-11 21:10 | 53.99219 | 14.11332 | 3187 ft | 122 kts | 1° |
| 2026-04-11 21:10 | 54.00075 | 14.10929 | 3200 ft | 138 kts | 344° |
| 2026-04-11 21:10 | 54.00865 | 14.10059 | 3284 ft | 133 kts | 282° |
| 2026-04-11 21:10 | 54.00611 | 14.08869 | 2712 ft | 104 kts | 193° |
| 2026-04-11 21:11 | 53.99959 | 14.09070 | 2269 ft | 90 kts | 158° |
| 2026-04-11 21:11 | 53.99377 | 14.09275 | 2062 ft | 76 kts | 179° |
| 2026-04-11 21:11 | 53.98946 | 14.08903 | 2023 ft | 69 kts | 197° |
| 2026-04-11 21:11 | 53.98535 | 14.08431 | 1977 ft | 73 kts | 200° |
| 2026-04-11 21:12 | 53.98127 | 14.07926 | 1978 ft | 72 kts | 201° |
| 2026-04-11 21:12 | 53.97721 | 14.07408 | 1933 ft | 75 kts | 200° |
| 2026-04-11 21:12 | 53.97262 | 14.06875 | 2023 ft | 83 kts | 199° |
| 2026-04-11 21:12 | 53.96719 | 14.06489 | 2088 ft | 89 kts | 182° |
| 2026-04-11 21:13 | 53.96153 | 14.06309 | 2167 ft | 71 kts | 186° |
| 2026-04-11 21:13 | 53.95734 | 14.06022 | 2055 ft | 59 kts | 192° |
| 2026-04-11 21:13 | 53.95388 | 14.05695 | 1961 ft | 59 kts | 192° |
| 2026-04-11 21:13 | 53.95025 | 14.05348 | 1909 ft | 62 kts | 191° |
| 2026-04-11 21:14 | 53.94629 | 14.05007 | 1884 ft | 67 kts | 191° |
| 2026-04-11 21:14 | 53.94246 | 14.04554 | 1905 ft | 73 kts | 206° |
| 2026-04-11 21:14 | 53.93858 | 14.03968 | 1932 ft | 74 kts | 206° |
| 2026-04-11 21:14 | 53.93481 | 14.03396 | 1943 ft | 71 kts | 206° |
| 2026-04-11 21:15 | 53.93244 | 14.03025 | 1905 ft | 71 kts | 206° |
| 2026-04-11 21:15 | 53.92870 | 14.02506 | 1850 ft | 67 kts | 196° |
| 2026-04-11 21:15 | 53.92473 | 14.02333 | 1771 ft | 58 kts | 172° |
| 2026-04-11 21:15 | 53.92067 | 14.02370 | 1651 ft | 59 kts | 166° |
| 2026-04-11 21:16 | 53.91653 | 14.02545 | 1525 ft | 74 kts | 150° |
| 2026-04-11 21:16 | 53.91188 | 14.03099 | 1397 ft | 80 kts | 145° |
| 2026-04-11 21:16 | 53.90785 | 14.03622 | 1358 ft | 66 kts | 137° |
| 2026-04-11 21:16 | 53.90453 | 14.04274 | 1367 ft | 80 kts | 133° |
| 2026-04-11 21:17 | 53.90116 | 14.05057 | 1354 ft | 84 kts | 128° |
| 2026-04-11 21:17 | 53.89808 | 14.05932 | 1258 ft | 86 kts | 125° |
| 2026-04-11 21:17 | 53.89511 | 14.06830 | 1132 ft | 89 kts | 127° |
| 2026-04-11 21:17 | 53.89187 | 14.07772 | 944 ft | 98 kts | 124° |
| 2026-04-11 21:18 | 53.88911 | 14.08829 | 720 ft | 96 kts | 106° |
| 2026-04-11 21:18 | 53.88769 | 14.09864 | 531 ft | 83 kts | 105° |
| 2026-04-11 21:18 | 53.88610 | 14.10733 | 412 ft | 71 kts | 108° |
| 2026-04-11 21:18 | 53.88489 | 14.11484 | 317 ft | 64 kts | 105° |
| 2026-04-11 21:19 | 53.88365 | 14.12194 | 221 ft | 61 kts | 102° |
| 2026-04-11 21:19 | 53.88253 | 14.12914 | 140 ft | 60 kts | 102° |
| 2026-04-11 21:19 | 53.88143 | 14.13556 | 64 ft | 47 kts | 103° |
| 2026-04-11 21:19 | 53.88107 | 14.13784 | 66 ft | 6 kts | 126° |
| 2026-04-11 21:20 | 53.88054 | 14.13884 | 61 ft | 8 kts | 173° |
| 2026-04-11 21:20 | 53.87999 | 14.13889 | 64 ft | 9 kts | 176° |
| 2026-04-11 21:20 | 53.87944 | 14.13933 | 66 ft | 10 kts | 123° |
| 2026-04-11 21:20 | 53.87904 | 14.14049 | 64 ft | 13 kts | 118° |
| 2026-04-11 21:21 | 53.87863 | 14.14170 | 61 ft | 10 kts | 122° |
| 2026-04-11 21:21 | 53.87829 | 14.14273 | 58 ft | 10 kts | 117° |
| 2026-04-11 21:21 | 53.87785 | 14.14403 | 55 ft | 15 kts | 124° |
| 2026-04-11 21:21 | 53.87726 | 14.14483 | 60 ft | 0 kts | 165° |
| 2026-04-11 21:50 | 53.87739 | 14.14478 | 57 ft | 0 kts | 165° |